sensor_id;sensor_type;location;lat;lon;timestamp;pressure;altitude;pressure_sealevel;temperature;humidity
58311;BME280;45001;52.218;5.154;2022-07-29T00:00:25;101855.63;;;22.74;46.84
58311;BME280;45001;52.218;5.154;2022-07-29T00:02:51;101856.69;;;22.73;46.96
58311;BME280;45001;52.218;5.154;2022-07-29T00:05:17;101853.13;;;22.72;46.87
58311;BME280;45001;52.218;5.154;2022-07-29T00:07:42;101852.28;;;22.72;46.93
58311;BME280;45001;52.218;5.154;2022-07-29T00:10:08;101849.56;;;22.72;46.90
58311;BME280;45001;52.218;5.154;2022-07-29T00:12:33;101851.44;;;22.71;47.06
58311;BME280;45001;52.218;5.154;2022-07-29T00:14:58;101850.63;;;22.71;46.96
58311;BME280;45001;52.218;5.154;2022-07-29T00:17:24;101840.56;;;22.71;46.99
58311;BME280;45001;52.218;5.154;2022-07-29T00:19:50;101843.50;;;22.70;46.84
58311;BME280;45001;52.218;5.154;2022-07-29T00:22:15;101835.34;;;22.70;46.84
58311;BME280;45001;52.218;5.154;2022-07-29T00:24:41;101838.91;;;22.70;46.77
58311;BME280;45001;52.218;5.154;2022-07-29T00:27:06;101834.72;;;22.68;46.94
58311;BME280;45001;52.218;5.154;2022-07-29T00:29:31;101832.81;;;22.68;46.87
58311;BME280;45001;52.218;5.154;2022-07-29T00:31:56;101823.84;;;22.68;46.89
58311;BME280;45001;52.218;5.154;2022-07-29T00:34:22;101818.19;;;22.69;46.99
58311;BME280;45001;52.218;5.154;2022-07-29T00:37:05;101814.84;;;22.67;46.89
58311;BME280;45001;52.218;5.154;2022-07-29T00:39:31;101812.13;;;22.67;46.89
58311;BME280;45001;52.218;5.154;2022-07-29T00:41:56;101816.75;;;22.67;46.90
58311;BME280;45001;52.218;5.154;2022-07-29T00:44:21;101817.78;;;22.65;46.89
58311;BME280;45001;52.218;5.154;2022-07-29T00:46:46;101821.31;;;22.66;46.90
58311;BME280;45001;52.218;5.154;2022-07-29T00:49:12;101813.16;;;22.66;46.92
58311;BME280;45001;52.218;5.154;2022-07-29T00:51:38;101802.53;;;22.64;46.97
58311;BME280;45001;52.218;5.154;2022-07-29T00:54:04;101806.91;;;22.65;47.08
58311;BME280;45001;52.218;5.154;2022-07-29T00:56:31;101805.44;;;22.63;47.07
58311;BME280;45001;52.218;5.154;2022-07-29T00:58:57;101805.44;;;22.63;46.90
58311;BME280;45001;52.218;5.154;2022-07-29T01:01:22;101800.84;;;22.63;46.93
58311;BME280;45001;52.218;5.154;2022-07-29T01:03:47;101807.09;;;22.64;46.98
58311;BME280;45001;52.218;5.154;2022-07-29T01:06:14;101803.56;;;22.63;47.01
58311;BME280;45001;52.218;5.154;2022-07-29T01:08:40;101802.94;;;22.61;47.05
58311;BME280;45001;52.218;5.154;2022-07-29T01:11:06;101811.09;;;22.61;46.84
58311;BME280;45001;52.218;5.154;2022-07-29T01:13:32;101801.88;;;22.62;47.09
58311;BME280;45001;52.218;5.154;2022-07-29T01:16:01;101792.06;;;22.61;46.89
58311;BME280;45001;52.218;5.154;2022-07-29T01:18:31;101797.50;;;22.61;47.02
58311;BME280;45001;52.218;5.154;2022-07-29T01:24:11;101802.09;;;22.61;46.93
58311;BME280;45001;52.218;5.154;2022-07-29T01:29:38;101794.97;;;22.60;46.87
58311;BME280;45001;52.218;5.154;2022-07-29T01:32:13;101794.16;;;22.59;47.02
58311;BME280;45001;52.218;5.154;2022-07-29T01:34:53;101791.44;;;22.59;46.99
58311;BME280;45001;52.218;5.154;2022-07-29T01:37:46;101789.94;;;22.57;46.97
58311;BME280;45001;52.218;5.154;2022-07-29T01:40:18;101790.81;;;22.57;46.97
58311;BME280;45001;52.218;5.154;2022-07-29T01:42:51;101793.53;;;22.57;46.88
58311;BME280;45001;52.218;5.154;2022-07-29T01:48:00;101795.38;;;22.57;46.93
58311;BME280;45001;52.218;5.154;2022-07-29T01:50:37;101795.38;;;22.57;46.95
58311;BME280;45001;52.218;5.154;2022-07-29T01:53:09;101789.31;;;22.55;47.06
58311;BME280;45001;52.218;5.154;2022-07-29T01:55:38;101787.47;;;22.55;47.12
58311;BME280;45001;52.218;5.154;2022-07-29T01:58:05;101792.25;;;22.53;47.07
58311;BME280;45001;52.218;5.154;2022-07-29T02:00:33;101788.50;;;22.54;47.08
58311;BME280;45001;52.218;5.154;2022-07-29T02:03:02;101783.25;;;22.53;46.97
58311;BME280;45001;52.218;5.154;2022-07-29T02:05:30;101785.78;;;22.54;46.90
58311;BME280;45001;52.218;5.154;2022-07-29T02:07:58;101794.13;;;22.53;46.79
58311;BME280;45001;52.218;5.154;2022-07-29T02:10:28;101787.88;;;22.52;46.95
58311;BME280;45001;52.218;5.154;2022-07-29T02:12:54;101793.94;;;22.54;46.85
58311;BME280;45001;52.218;5.154;2022-07-29T02:15:26;101781.81;;;22.50;47.02
58311;BME280;45001;52.218;5.154;2022-07-29T02:18:15;101791.63;;;22.51;46.96
58311;BME280;45001;52.218;5.154;2022-07-29T02:20:45;101786.19;;;22.51;46.91
58311;BME280;45001;52.218;5.154;2022-07-29T02:23:13;101783.69;;;22.50;46.95
58311;BME280;45001;52.218;5.154;2022-07-29T02:25:41;101788.28;;;22.49;46.84
58311;BME280;45001;52.218;5.154;2022-07-29T02:28:08;101787.25;;;22.50;46.80
58311;BME280;45001;52.218;5.154;2022-07-29T02:30:36;101784.72;;;22.49;46.88
58311;BME280;45001;52.218;5.154;2022-07-29T02:33:05;101785.75;;;22.48;46.73
58311;BME280;45001;52.218;5.154;2022-07-29T02:35:31;101782.41;;;22.45;46.95
58311;BME280;45001;52.218;5.154;2022-07-29T02:37:57;101784.72;;;22.49;46.83
58311;BME280;45001;52.218;5.154;2022-07-29T02:40:42;101781.19;;;22.48;46.72
58311;BME280;45001;52.218;5.154;2022-07-29T02:43:09;101774.06;;;22.47;46.87
58311;BME280;45001;52.218;5.154;2022-07-29T02:45:35;101775.31;;;22.44;46.67
58311;BME280;45001;52.218;5.154;2022-07-29T02:48:10;101777.22;;;22.44;46.77
58311;BME280;45001;52.218;5.154;2022-07-29T02:50:43;101774.06;;;22.47;46.65
58311;BME280;45001;52.218;5.154;2022-07-29T02:53:20;101777.22;;;22.44;46.72
58311;BME280;45001;52.218;5.154;2022-07-29T02:55:59;101775.31;;;22.44;46.67
58311;BME280;45001;52.218;5.154;2022-07-29T02:58:34;101775.53;;;22.43;46.91
58311;BME280;45001;52.218;5.154;2022-07-29T03:01:13;101771.97;;;22.42;46.83
58311;BME280;45001;52.218;5.154;2022-07-29T03:03:42;101769.25;;;22.42;46.83
58311;BME280;45001;52.218;5.154;2022-07-29T03:06:08;101771.13;;;22.42;46.77
58311;BME280;45001;52.218;5.154;2022-07-29T03:08:35;101771.13;;;22.42;46.64
58311;BME280;45001;52.218;5.154;2022-07-29T03:11:01;101773.84;;;22.42;46.83
58311;BME280;45001;52.218;5.154;2022-07-29T03:13:27;101774.28;;;22.39;46.62
58311;BME280;45001;52.218;5.154;2022-07-29T03:15:53;101770.50;;;22.40;46.62
58311;BME280;45001;52.218;5.154;2022-07-29T03:18:19;101767.78;;;22.40;46.63
58311;BME280;45001;52.218;5.154;2022-07-29T03:20:44;101762.53;;;22.38;46.54
58311;BME280;45001;52.218;5.154;2022-07-29T03:23:10;101760.69;;;22.39;46.62
58311;BME280;45001;52.218;5.154;2022-07-29T03:25:36;101757.34;;;22.37;46.63
58311;BME280;45001;52.218;5.154;2022-07-29T03:28:02;101761.72;;;22.38;46.70
58311;BME280;45001;52.218;5.154;2022-07-29T03:30:28;101760.06;;;22.37;46.63
58311;BME280;45001;52.218;5.154;2022-07-29T03:32:55;101751.91;;;22.37;46.63
58311;BME280;45001;52.218;5.154;2022-07-29T03:35:21;101748.31;;;22.36;46.71
58311;BME280;45001;52.218;5.154;2022-07-29T03:37:46;101754.00;;;22.35;46.72
58311;BME280;45001;52.218;5.154;2022-07-29T03:40:17;101751.91;;;22.37;46.78
58311;BME280;45001;52.218;5.154;2022-07-29T03:42:43;101762.78;;;22.37;46.67
58311;BME280;45001;52.218;5.154;2022-07-29T03:45:13;101751.28;;;22.35;46.65
58311;BME280;45001;52.218;5.154;2022-07-29T03:47:47;101757.53;;;22.35;46.78
58311;BME280;45001;52.218;5.154;2022-07-29T03:50:14;101748.56;;;22.35;46.65
58311;BME280;45001;52.218;5.154;2022-07-29T03:52:40;101757.75;;;22.34;46.58
58311;BME280;45001;52.218;5.154;2022-07-29T03:55:06;101747.69;;;22.34;46.45
58311;BME280;45001;52.218;5.154;2022-07-29T03:57:32;101749.38;;;22.35;46.52
58311;BME280;45001;52.218;5.154;2022-07-29T04:00:00;101751.47;;;22.33;46.61
58311;BME280;45001;52.218;5.154;2022-07-29T04:02:26;101754.19;;;22.33;46.57
58311;BME280;45001;52.218;5.154;2022-07-29T04:04:52;101751.47;;;22.33;46.58
58311;BME280;45001;52.218;5.154;2022-07-29T04:07:17;101759.63;;;22.33;46.49
58311;BME280;45001;52.218;5.154;2022-07-29T04:09:43;101746.44;;;22.30;46.50
58311;BME280;45001;52.218;5.154;2022-07-29T04:12:09;101752.72;;;22.31;46.66
58311;BME280;45001;52.218;5.154;2022-07-29T04:14:34;101758.16;;;22.31;46.69
58311;BME280;45001;52.218;5.154;2022-07-29T04:17:01;101744.78;;;22.29;46.64
58311;BME280;45001;52.218;5.154;2022-07-29T04:19:26;101747.50;;;22.29;46.50
58311;BME280;45001;52.218;5.154;2022-07-29T04:21:52;101746.84;;;22.27;46.49
58311;BME280;45001;52.218;5.154;2022-07-29T04:24:17;101749.38;;;22.29;46.40
58311;BME280;45001;52.218;5.154;2022-07-29T04:26:43;101746.03;;;22.26;46.52
58311;BME280;45001;52.218;5.154;2022-07-29T04:29:08;101743.09;;;22.28;46.45
58311;BME280;45001;52.218;5.154;2022-07-29T04:31:34;101751.47;;;22.26;46.59
58311;BME280;45001;52.218;5.154;2022-07-29T04:33:59;101744.13;;;22.27;46.55
58311;BME280;45001;52.218;5.154;2022-07-29T04:36:25;101742.28;;;22.28;46.34
58311;BME280;45001;52.218;5.154;2022-07-29T04:38:50;101738.94;;;22.25;46.43
58311;BME280;45001;52.218;5.154;2022-07-29T04:41:15;101749.78;;;22.25;46.67
58311;BME280;45001;52.218;5.154;2022-07-29T04:43:40;101752.50;;;22.25;46.36
58311;BME280;45001;52.218;5.154;2022-07-29T04:46:06;101740.97;;;22.23;46.36
58311;BME280;45001;52.218;5.154;2022-07-29T04:48:32;101742.66;;;22.24;46.59
58311;BME280;45001;52.218;5.154;2022-07-29T04:50:58;101751.81;;;22.23;46.54
58311;BME280;45001;52.218;5.154;2022-07-29T04:53:23;101752.69;;;22.24;46.42
58311;BME280;45001;52.218;5.154;2022-07-29T04:55:49;101752.88;;;22.22;46.69
58311;BME280;45001;52.218;5.154;2022-07-29T04:58:14;101746.38;;;22.23;46.52
58311;BME280;45001;52.218;5.154;2022-07-29T05:00:40;101749.09;;;22.23;46.42
58311;BME280;45001;52.218;5.154;2022-07-29T05:03:05;101750.16;;;22.22;46.37
58311;BME280;45001;52.218;5.154;2022-07-29T05:05:31;101749.34;;;22.22;46.58
58311;BME280;45001;52.218;5.154;2022-07-29T05:07:56;101752.25;;;22.20;46.38
58311;BME280;45001;52.218;5.154;2022-07-29T05:10:22;101747.66;;;22.21;46.58
58311;BME280;45001;52.218;5.154;2022-07-29T05:12:48;101752.25;;;22.20;46.38
58311;BME280;45001;52.218;5.154;2022-07-29T05:15:13;101751.19;;;22.21;46.43
58311;BME280;45001;52.218;5.154;2022-07-29T05:17:39;101752.25;;;22.20;46.38
58311;BME280;45001;52.218;5.154;2022-07-29T05:20:05;101757.69;;;22.20;46.45
58311;BME280;45001;52.218;5.154;2022-07-29T05:22:30;101749.53;;;22.20;46.47
58311;BME280;45001;52.218;5.154;2022-07-29T05:24:56;101753.28;;;22.19;46.40
58311;BME280;45001;52.218;5.154;2022-07-29T05:27:21;101750.56;;;22.19;46.41
58311;BME280;45001;52.218;5.154;2022-07-29T05:29:46;101752.47;;;22.19;46.52
58311;BME280;45001;52.218;5.154;2022-07-29T05:32:12;101762.50;;;22.18;46.55
58311;BME280;45001;52.218;5.154;2022-07-29T05:34:38;101753.28;;;22.19;46.36
58311;BME280;45001;52.218;5.154;2022-07-29T05:37:03;101757.06;;;22.18;46.50
58311;BME280;45001;52.218;5.154;2022-07-29T05:39:28;101753.50;;;22.18;46.33
58311;BME280;45001;52.218;5.154;2022-07-29T05:41:53;101761.88;;;22.16;46.62
58311;BME280;45001;52.218;5.154;2022-07-29T05:44:19;101749.94;;;22.17;46.56
58311;BME280;45001;52.218;5.154;2022-07-29T05:46:44;101758.91;;;22.18;46.43
58311;BME280;45001;52.218;5.154;2022-07-29T05:49:09;101757.06;;;22.18;46.48
58311;BME280;45001;52.218;5.154;2022-07-29T05:51:35;101761.44;;;22.19;46.53
58311;BME280;45001;52.218;5.154;2022-07-29T05:54:01;101754.53;;;22.17;46.49
58311;BME280;45001;52.218;5.154;2022-07-29T05:56:26;101759.16;;;22.16;46.51
58311;BME280;45001;52.218;5.154;2022-07-29T05:58:52;101765.41;;;22.17;46.48
58311;BME280;45001;52.218;5.154;2022-07-29T06:01:17;101771.66;;;22.17;46.50
58311;BME280;45001;52.218;5.154;2022-07-29T06:03:42;101769.78;;;22.18;47.44
58311;BME280;45001;52.218;5.154;2022-07-29T06:06:08;101772.94;;;22.15;47.13
58311;BME280;45001;52.218;5.154;2022-07-29T06:08:34;101764.75;;;22.08;47.31
58311;BME280;45001;52.218;5.154;2022-07-29T06:11:00;101768.91;;;22.04;47.33
58311;BME280;45001;52.218;5.154;2022-07-29T06:13:25;101771.63;;;22.04;47.11
58311;BME280;45001;52.218;5.154;2022-07-29T06:15:51;101765.59;;;22.02;47.14
58311;BME280;45001;52.218;5.154;2022-07-29T06:18:16;101763.88;;;22.01;46.98
58311;BME280;45001;52.218;5.154;2022-07-29T06:20:42;101763.06;;;22.00;46.97
58311;BME280;45001;52.218;5.154;2022-07-29T06:23:07;101761.41;;;21.99;47.13
58311;BME280;45001;52.218;5.154;2022-07-29T06:25:33;101761.59;;;21.98;47.58
58311;BME280;45001;52.218;5.154;2022-07-29T06:28:00;101761.59;;;21.98;48.25
58311;BME280;45001;52.218;5.154;2022-07-29T06:30:25;101769.66;;;21.78;47.91
58311;BME280;45001;52.218;5.154;2022-07-29T06:32:51;101766.25;;;21.27;48.92
58311;BME280;45001;52.218;5.154;2022-07-29T06:35:17;101766.53;;;21.04;49.44
58311;BME280;45001;52.218;5.154;2022-07-29T06:37:42;101767.63;;;21.45;48.62
58311;BME280;45001;52.218;5.154;2022-07-29T06:40:08;101774.66;;;21.74;48.09
58311;BME280;45001;52.218;5.154;2022-07-29T06:42:52;101774.59;;;21.61;48.07
58311;BME280;45001;52.218;5.154;2022-07-29T06:45:17;101778.44;;;21.73;48.13
58311;BME280;45001;52.218;5.154;2022-07-29T06:47:42;101783.75;;;21.53;48.54
58311;BME280;45001;52.218;5.154;2022-07-29T06:50:08;101787.13;;;21.27;48.98
58311;BME280;45001;52.218;5.154;2022-07-29T06:52:36;101791.66;;;21.48;48.21
58311;BME280;45001;52.218;5.154;2022-07-29T06:55:02;101799.47;;;21.64;48.22
58311;BME280;45001;52.218;5.154;2022-07-29T06:57:27;101808.94;;;21.75;47.94
58311;BME280;45001;52.218;5.154;2022-07-29T06:59:53;101811.84;;;21.80;47.92
58311;BME280;45001;52.218;5.154;2022-07-29T07:02:18;101813.09;;;21.78;47.65
58311;BME280;45001;52.218;5.154;2022-07-29T07:04:43;101816.44;;;21.73;47.90
58311;BME280;45001;52.218;5.154;2022-07-29T07:07:09;101816.44;;;21.73;47.74
58311;BME280;45001;52.218;5.154;2022-07-29T07:09:34;101815.19;;;21.82;47.75
58311;BME280;45001;52.218;5.154;2022-07-29T07:11:59;101820.09;;;21.59;47.81
58311;BME280;45001;52.218;5.154;2022-07-29T07:14:24;101822.19;;;21.57;48.29
58311;BME280;45001;52.218;5.154;2022-07-29T07:16:51;101808.44;;;21.65;48.14
58311;BME280;45001;52.218;5.154;2022-07-29T07:19:17;101810.97;;;21.66;47.90
58311;BME280;45001;52.218;5.154;2022-07-29T07:21:44;101807.28;;;21.46;48.09
58311;BME280;45001;52.218;5.154;2022-07-29T07:24:09;101810.88;;;21.53;48.25
58311;BME280;45001;52.218;5.154;2022-07-29T07:26:34;101810.63;;;21.83;47.69
58311;BME280;45001;52.218;5.154;2022-07-29T07:29:00;101808.63;;;22.05;47.65
58311;BME280;45001;52.218;5.154;2022-07-29T07:31:25;101812.41;;;22.17;47.53
58311;BME280;45001;52.218;5.154;2022-07-29T07:33:54;101806.97;;;22.17;47.88
58311;BME280;45001;52.218;5.154;2022-07-29T07:36:19;101808.53;;;22.33;47.50
58311;BME280;45001;52.218;5.154;2022-07-29T07:38:45;101812.94;;;22.41;47.59
58311;BME280;45001;52.218;5.154;2022-07-29T07:41:10;101806.25;;;22.57;47.15
58311;BME280;45001;52.218;5.154;2022-07-29T07:43:35;101795.59;;;22.62;47.24
58311;BME280;45001;52.218;5.154;2022-07-29T07:46:01;101800.00;;;22.70;47.11
58311;BME280;45001;52.218;5.154;2022-07-29T07:48:26;101796.25;;;22.71;47.44
58311;BME280;45001;52.218;5.154;2022-07-29T07:50:51;101788.09;;;22.97;46.68
58311;BME280;45001;52.218;5.154;2022-07-29T07:53:17;101805.44;;;22.83;47.34
58311;BME280;45001;52.218;5.154;2022-07-29T07:55:42;101798.34;;;23.09;46.58
58311;BME280;45001;52.218;5.154;2022-07-29T07:58:09;101787.47;;;22.95;46.90
58311;BME280;45001;52.218;5.154;2022-07-29T08:00:34;101782.66;;;22.84;47.30
58311;BME280;45001;52.218;5.154;2022-07-29T08:03:00;101785.34;;;22.97;47.18
58311;BME280;45001;52.218;5.154;2022-07-29T08:05:25;101777.63;;;22.94;46.91
58311;BME280;45001;52.218;5.154;2022-07-29T08:07:50;101784.09;;;23.20;46.63
58311;BME280;45001;52.218;5.154;2022-07-29T08:10:17;101786.41;;;23.23;46.46
58311;BME280;45001;52.218;5.154;2022-07-29T08:13:07;101795.00;;;23.20;46.54
58311;BME280;45001;52.218;5.154;2022-07-29T08:15:33;101792.50;;;23.05;46.94
58311;BME280;45001;52.218;5.154;2022-07-29T08:18:04;101794.16;;;23.13;47.19
58311;BME280;45001;52.218;5.154;2022-07-29T08:20:29;101786.22;;;23.05;47.06
58311;BME280;45001;52.218;5.154;2022-07-29T08:22:57;101788.91;;;23.38;46.30
58311;BME280;45001;52.218;5.154;2022-07-29T08:25:22;101788.06;;;23.24;46.38
58311;BME280;45001;52.218;5.154;2022-07-29T08:27:48;101792.28;;;23.20;46.58
58311;BME280;45001;52.218;5.154;2022-07-29T08:30:13;101797.72;;;23.07;46.90
58311;BME280;45001;52.218;5.154;2022-07-29T08:32:38;101798.13;;;23.30;46.26
58311;BME280;45001;52.218;5.154;2022-07-29T08:35:04;101798.56;;;23.14;46.73
58311;BME280;45001;52.218;5.154;2022-07-29T08:37:29;101796.22;;;23.24;46.44
58311;BME280;45001;52.218;5.154;2022-07-29T08:39:55;101799.16;;;23.29;46.30
58311;BME280;45001;52.218;5.154;2022-07-29T08:42:20;101805.44;;;23.30;46.03
58311;BME280;45001;52.218;5.154;2022-07-29T08:44:46;101808.81;;;23.18;46.57
58311;BME280;45001;52.218;5.154;2022-07-29T08:47:14;101801.69;;;23.17;46.77
58311;BME280;45001;52.218;5.154;2022-07-29T08:49:39;101805.44;;;23.30;46.61
58311;BME280;45001;52.218;5.154;2022-07-29T08:52:05;101810.88;;;23.43;46.62
58311;BME280;45001;52.218;5.154;2022-07-29T08:54:31;101808.34;;;23.41;46.05
58311;BME280;45001;52.218;5.154;2022-07-29T08:56:57;101813.34;;;23.45;45.86
58311;BME280;45001;52.218;5.154;2022-07-29T08:59:27;101809.19;;;23.49;45.75
58311;BME280;45001;52.218;5.154;2022-07-29T09:01:56;101803.94;;;23.40;46.03
58311;BME280;45001;52.218;5.154;2022-07-29T09:04:24;101817.94;;;23.64;45.42
58311;BME280;45001;52.218;5.154;2022-07-29T09:06:52;101813.16;;;23.46;45.77
58311;BME280;45001;52.218;5.154;2022-07-29T09:09:19;101806.88;;;23.52;45.79
58311;BME280;45001;52.218;5.154;2022-07-29T09:11:45;101803.69;;;23.55;45.76
58311;BME280;45001;52.218;5.154;2022-07-29T09:14:12;101803.91;;;23.67;45.32
58311;BME280;45001;52.218;5.154;2022-07-29T09:16:45;101803.28;;;23.65;45.50
58311;BME280;45001;52.218;5.154;2022-07-29T09:19:40;101800.97;;;23.62;45.40
58311;BME280;45001;52.218;5.154;2022-07-29T09:22:06;101803.03;;;23.67;45.25
58311;BME280;45001;52.218;5.154;2022-07-29T09:27:00;101785.88;;;23.73;45.16
58311;BME280;45001;52.218;5.154;2022-07-29T09:29:25;101783.13;;;23.79;45.02
58311;BME280;45001;52.218;5.154;2022-07-29T09:31:54;101779.75;;;23.77;45.44
58311;BME280;45001;52.218;5.154;2022-07-29T09:34:28;101782.72;;;23.83;44.50
58311;BME280;45001;52.218;5.154;2022-07-29T09:36:56;101781.66;;;23.77;44.31
58311;BME280;45001;52.218;5.154;2022-07-29T09:39:32;101779.81;;;23.57;45.11
58311;BME280;45001;52.218;5.154;2022-07-29T09:42:03;101774.00;;;23.47;44.89
58311;BME280;45001;52.218;5.154;2022-07-29T09:44:47;101777.31;;;23.63;44.72
58311;BME280;45001;52.218;5.154;2022-07-29T09:47:14;101786.75;;;23.60;44.73
58311;BME280;45001;52.218;5.154;2022-07-29T09:49:59;101786.06;;;23.71;44.14
58311;BME280;45001;52.218;5.154;2022-07-29T09:52:29;101789.00;;;23.70;43.99
58311;BME280;45001;52.218;5.154;2022-07-29T09:55:06;101781.09;;;23.55;44.57
58311;BME280;45001;52.218;5.154;2022-07-29T09:57:31;101788.59;;;23.59;44.25
58311;BME280;45001;52.218;5.154;2022-07-29T10:02:31;101794.09;;;23.46;44.70
58311;BME280;45001;52.218;5.154;2022-07-29T10:04:56;101786.53;;;23.55;44.81
58311;BME280;45001;52.218;5.154;2022-07-29T10:07:22;101789.47;;;23.53;44.96
58311;BME280;45001;52.218;5.154;2022-07-29T10:09:55;101793.72;;;23.36;45.18
58311;BME280;45001;52.218;5.154;2022-07-29T10:12:21;101791.00;;;23.29;45.81
58311;BME280;45001;52.218;5.154;2022-07-29T10:14:47;101788.91;;;23.31;45.91
58311;BME280;45001;52.218;5.154;2022-07-29T10:17:12;101791.22;;;23.21;46.76
58311;BME280;45001;52.218;5.154;2022-07-29T10:19:38;101789.13;;;23.16;46.67
58311;BME280;45001;52.218;5.154;2022-07-29T10:22:06;101795.84;;;23.14;47.01
58311;BME280;45001;52.218;5.154;2022-07-29T10:24:34;101788.75;;;23.06;47.13
58311;BME280;45001;52.218;5.154;2022-07-29T10:27:02;101785.41;;;23.04;47.30
58311;BME280;45001;52.218;5.154;2022-07-29T10:29:28;101775.09;;;22.99;47.38
58311;BME280;45001;52.218;5.154;2022-07-29T10:43:51;101783.28;;;23.26;47.14
58311;BME280;45001;52.218;5.154;2022-07-29T10:46:18;101778.22;;;23.36;47.27
58311;BME280;45001;52.218;5.154;2022-07-29T10:49:13;101778.78;;;23.52;47.17
58311;BME280;45001;52.218;5.154;2022-07-29T10:51:54;101780.69;;;23.58;47.35
58311;BME280;45001;52.218;5.154;2022-07-29T10:59:42;101783.97;;;23.73;47.35
58311;BME280;45001;52.218;5.154;2022-07-29T11:05:06;101775.34;;;23.90;47.12
58311;BME280;45001;52.218;5.154;2022-07-29T11:07:33;101779.56;;;23.86;47.36
58311;BME280;45001;52.218;5.154;2022-07-29T11:15:04;101783.94;;;23.87;47.22
58311;BME280;45001;52.218;5.154;2022-07-29T11:20:42;101776.78;;;23.99;47.21
58311;BME280;45001;52.218;5.154;2022-07-29T11:23:27;101777.63;;;23.93;47.17
58311;BME280;45001;52.218;5.154;2022-07-29T11:28:54;101781.13;;;24.07;46.77
58311;BME280;45001;52.218;5.154;2022-07-29T11:31:43;101784.53;;;23.95;47.25
58311;BME280;45001;52.218;5.154;2022-07-29T11:34:26;101778.63;;;24.05;46.76
58311;BME280;45001;52.218;5.154;2022-07-29T11:37:14;101775.00;;;24.11;46.60
58311;BME280;45001;52.218;5.154;2022-07-29T11:45:14;101784.09;;;22.87;47.04
58311;BME280;45001;52.218;5.154;2022-07-29T11:47:47;101788.09;;;22.84;46.79
58311;BME280;45001;52.218;5.154;2022-07-29T11:50:26;101782.84;;;22.82;46.85
58311;BME280;45001;52.218;5.154;2022-07-29T11:52:52;101788.50;;;22.88;47.10
58311;BME280;45001;52.218;5.154;2022-07-29T11:55:19;101773.22;;;22.87;47.11
58311;BME280;45001;52.218;5.154;2022-07-29T11:57:51;101780.78;;;22.91;47.10
58311;BME280;45001;52.218;5.154;2022-07-29T12:00:30;101783.09;;;23.08;46.91
58311;BME280;45001;52.218;5.154;2022-07-29T12:02:58;101781.72;;;23.57;45.98
58311;BME280;45001;52.218;5.154;2022-07-29T12:05:41;101783.56;;;23.63;45.92
58311;BME280;45001;52.218;5.154;2022-07-29T12:08:09;101794.09;;;23.46;46.36
58311;BME280;45001;52.218;5.154;2022-07-29T12:10:36;101783.56;;;23.70;45.80
58311;BME280;45001;52.218;5.154;2022-07-29T12:13:01;88440.44;;;24.13;45.53
58311;BME280;45001;52.218;5.154;2022-07-29T12:15:29;101789.31;;;24.00;45.46
58311;BME280;45001;52.218;5.154;2022-07-29T12:17:54;101794.25;;;24.16;45.56
58311;BME280;45001;52.218;5.154;2022-07-29T12:20:28;101785.38;;;24.28;45.43
58311;BME280;45001;52.218;5.154;2022-07-29T12:22:54;101792.06;;;24.32;45.51
58311;BME280;45001;52.218;5.154;2022-07-29T12:25:24;101791.34;;;24.11;45.62
58311;BME280;45001;52.218;5.154;2022-07-29T12:28:00;101789.78;;;23.97;45.92
58311;BME280;45001;52.218;5.154;2022-07-29T12:30:37;101783.25;;;23.98;45.69
58311;BME280;45001;52.218;5.154;2022-07-29T12:33:11;101785.97;;;23.98;45.44
58311;BME280;45001;52.218;5.154;2022-07-29T12:35:37;101781.53;;;24.04;45.22
58311;BME280;45001;52.218;5.154;2022-07-29T12:38:03;101790.19;;;24.01;45.00
58311;BME280;45001;52.218;5.154;2022-07-29T12:40:29;101785.13;;;23.32;45.99
58311;BME280;45001;52.218;5.154;2022-07-29T12:43:14;101780.63;;;23.71;45.64
58311;BME280;45001;52.218;5.154;2022-07-29T12:45:47;101790.31;;;24.12;45.11
58311;BME280;45001;52.218;5.154;2022-07-29T12:48:14;101787.13;;;24.15;45.14
58311;BME280;45001;52.218;5.154;2022-07-29T12:50:57;101785.38;;;24.28;45.18
58311;BME280;45001;52.218;5.154;2022-07-29T12:53:24;101783.28;;;24.30;45.27
58311;BME280;45001;52.218;5.154;2022-07-29T12:55:51;101777.59;;;24.38;45.29
58311;BME280;45001;52.218;5.154;2022-07-29T12:58:37;101773.69;;;24.21;45.77
58311;BME280;45001;52.218;5.154;2022-07-29T13:01:10;101783.75;;;24.27;45.80
58311;BME280;45001;52.218;5.154;2022-07-29T13:03:55;101776.19;;;23.84;46.77
58311;BME280;45001;52.218;5.154;2022-07-29T13:06:42;101773.88;;;23.15;47.93
58311;BME280;45001;52.218;5.154;2022-07-29T13:09:11;101775.53;;;23.16;47.87
58311;BME280;45001;52.218;5.154;2022-07-29T13:11:38;101774.50;;;23.17;47.49
58311;BME280;45001;52.218;5.154;2022-07-29T13:14:05;101770.97;;;23.69;46.50
58311;BME280;45001;52.218;5.154;2022-07-29T13:16:31;101772.56;;;23.96;46.21
58311;BME280;45001;52.218;5.154;2022-07-29T13:19:31;101781.16;;;24.32;45.32
58311;BME280;45001;52.218;5.154;2022-07-29T13:21:57;101775.75;;;23.93;45.91
58311;BME280;45001;52.218;5.154;2022-07-29T13:24:22;101776.25;;;23.64;46.24
58311;BME280;45001;52.218;5.154;2022-07-29T13:26:47;101772.94;;;23.55;46.65
58311;BME280;45001;52.218;5.154;2022-07-29T13:29:13;101770.88;;;23.50;46.68
58311;BME280;45001;52.218;5.154;2022-07-29T13:31:38;101777.75;;;23.46;46.36
58311;BME280;45001;52.218;5.154;2022-07-29T13:34:04;101780.06;;;23.42;46.62
58311;BME280;45001;52.218;5.154;2022-07-29T13:36:29;101778.78;;;23.58;46.57
58311;BME280;45001;52.218;5.154;2022-07-29T13:38:54;101777.56;;;23.54;47.45
58311;BME280;45001;52.218;5.154;2022-07-29T13:41:20;101780.72;;;23.38;48.55
58311;BME280;45001;52.218;5.154;2022-07-29T13:43:45;101773.84;;;23.35;48.67
58311;BME280;45001;52.218;5.154;2022-07-29T13:46:10;101768.97;;;23.44;48.67